Estación Meteorológica Peña el Pijo (Robertgarden) [ 10/16/18 14:58:06 CEST ]

Fecha Hora Presion(HPa) Temp (°C) Humedad % Rocio (°C) Viento ( m/s) Direccion Lluvia 1Hora(mm) Lluvia 24H(mm) LLuvia Total(mm)
2018-Oct-13 01:02:01 1014.800 11.9 85 9.4         7.77
2018-Oct-13 02:02:02 1014.600 10.9 86 8.6         7.77
2018-Oct-13 03:01:40 1014.300 10.5 87 8.4         7.77
2018-Oct-13 04:01:41 1013.700 9.9 88 8.0         7.77
2018-Oct-13 05:01:39 1013.200 9.8 88 7.9         7.77
2018-Oct-13 06:01:39 1012.700 9.3 89 7.6         7.77
2018-Oct-13 07:01:50 1012.300 9.3 89 7.6         7.77
2018-Oct-13 08:01:51 1012.100 8.5 89 6.8         7.77
2018-Oct-13 09:01:50 1012.200 8.2 90 6.7         7.77
2018-Oct-13 10:01:37 1012.700 14.4 92 13.1         7.77
2018-Oct-13 11:01:57 1012.400 20.5 80 16.9         7.77
2018-Oct-13 12:01:59 1011.900 24.6 56 15.2         7.77
2018-Oct-13 13:01:45 1011.300 27.1 47 14.8         7.77
2018-Oct-13 14:01:49 1010.600 26.9 44 13.6         7.77
2018-Oct-13 15:01:52 1009.600 27.6 44 14.2         7.77
2018-Oct-13 16:02:05 1009.100 26.6 42 12.6 1.7 NNE     7.77
2018-Oct-13 17:01:55 1008.300 25.0 46 12.5 3.0 NE     7.77
2018-Oct-13 18:01:46 1008.200 24.1 50 13.1         7.77
2018-Oct-13 19:01:40 1008.100 21.5 56 12.3         7.77
2018-Oct-13 20:01:47 1008.200 18.3 66 11.8         7.77
2018-Oct-13 21:01:42 1008.300 16.0 72 11.0         7.77
2018-Oct-13 22:01:41 1008.400 13.8 77 9.8         7.77
2018-Oct-13 23:01:42 1008.700 12.4 81 9.2         7.77

Temperatura Máxima:27°    Temperatura Mínima:
Presión Máxima:1014.800 Hpa    Presión Mínima:1008.100 Hpa


Volver